sensor_id;sensor_type;location;lat;lon;timestamp;P1;durP1;ratioP1;P2;durP2;ratioP2
3189;SDS011;1606;51.946;10.558;2022-12-20T00:01:52;15.80;;;6.97;;
3189;SDS011;1606;51.946;10.558;2022-12-20T00:04:20;13.70;;;7.90;;
3189;SDS011;1606;51.946;10.558;2022-12-20T00:06:47;14.00;;;7.00;;
3189;SDS011;1606;51.946;10.558;2022-12-20T00:09:15;14.33;;;7.47;;
3189;SDS011;1606;51.946;10.558;2022-12-20T00:11:43;14.37;;;7.03;;
3189;SDS011;1606;51.946;10.558;2022-12-20T00:14:11;13.30;;;6.87;;
3189;SDS011;1606;51.946;10.558;2022-12-20T00:16:40;14.93;;;7.30;;
3189;SDS011;1606;51.946;10.558;2022-12-20T00:19:08;14.53;;;6.70;;
3189;SDS011;1606;51.946;10.558;2022-12-20T00:21:37;13.80;;;7.33;;
3189;SDS011;1606;51.946;10.558;2022-12-20T00:24:05;14.47;;;6.60;;
3189;SDS011;1606;51.946;10.558;2022-12-20T00:26:34;13.30;;;7.20;;
3189;SDS011;1606;51.946;10.558;2022-12-20T00:29:03;12.73;;;6.83;;
3189;SDS011;1606;51.946;10.558;2022-12-20T00:31:32;13.70;;;6.50;;
3189;SDS011;1606;51.946;10.558;2022-12-20T00:34:02;17.97;;;6.73;;
3189;SDS011;1606;51.946;10.558;2022-12-20T00:36:30;13.07;;;7.50;;
3189;SDS011;1606;51.946;10.558;2022-12-20T00:38:59;13.33;;;6.60;;
3189;SDS011;1606;51.946;10.558;2022-12-20T00:41:28;12.77;;;6.97;;
3189;SDS011;1606;51.946;10.558;2022-12-20T00:43:57;13.30;;;6.17;;
3189;SDS011;1606;51.946;10.558;2022-12-20T00:46:25;14.30;;;7.13;;
3189;SDS011;1606;51.946;10.558;2022-12-20T00:48:54;11.17;;;6.50;;
3189;SDS011;1606;51.946;10.558;2022-12-20T00:51:24;14.40;;;7.10;;
3189;SDS011;1606;51.946;10.558;2022-12-20T00:53:53;13.33;;;6.90;;
3189;SDS011;1606;51.946;10.558;2022-12-20T00:56:22;12.33;;;7.23;;
3189;SDS011;1606;51.946;10.558;2022-12-20T00:58:51;13.60;;;7.00;;
3189;SDS011;1606;51.946;10.558;2022-12-20T01:01:20;13.93;;;6.87;;
3189;SDS011;1606;51.946;10.558;2022-12-20T01:03:50;12.40;;;6.10;;
3189;SDS011;1606;51.946;10.558;2022-12-20T01:06:19;11.80;;;6.30;;
3189;SDS011;1606;51.946;10.558;2022-12-20T01:08:49;13.20;;;6.30;;
3189;SDS011;1606;51.946;10.558;2022-12-20T01:11:17;13.50;;;6.40;;
3189;SDS011;1606;51.946;10.558;2022-12-20T01:13:47;15.20;;;7.40;;
3189;SDS011;1606;51.946;10.558;2022-12-20T01:16:17;11.97;;;6.50;;
3189;SDS011;1606;51.946;10.558;2022-12-20T01:18:47;18.50;;;6.87;;
3189;SDS011;1606;51.946;10.558;2022-12-20T01:21:17;13.27;;;7.33;;
3189;SDS011;1606;51.946;10.558;2022-12-20T01:23:46;15.60;;;6.00;;
3189;SDS011;1606;51.946;10.558;2022-12-20T01:26:16;14.23;;;6.80;;
3189;SDS011;1606;51.946;10.558;2022-12-20T01:28:45;10.23;;;5.70;;
3189;SDS011;1606;51.946;10.558;2022-12-20T01:31:15;12.77;;;6.63;;
3189;SDS011;1606;51.946;10.558;2022-12-20T01:33:45;15.00;;;6.73;;
3189;SDS011;1606;51.946;10.558;2022-12-20T01:36:15;10.43;;;5.73;;
3189;SDS011;1606;51.946;10.558;2022-12-20T01:38:44;12.83;;;7.20;;
3189;SDS011;1606;51.946;10.558;2022-12-20T01:41:13;14.67;;;7.63;;
3189;SDS011;1606;51.946;10.558;2022-12-20T01:43:50;14.53;;;6.70;;
3189;SDS011;1606;51.946;10.558;2022-12-20T01:46:21;11.17;;;5.87;;
3189;SDS011;1606;51.946;10.558;2022-12-20T01:48:51;12.67;;;5.97;;
3189;SDS011;1606;51.946;10.558;2022-12-20T01:51:22;13.43;;;6.70;;
3189;SDS011;1606;51.946;10.558;2022-12-20T01:53:53;13.03;;;6.90;;
3189;SDS011;1606;51.946;10.558;2022-12-20T01:56:24;17.03;;;6.23;;
3189;SDS011;1606;51.946;10.558;2022-12-20T01:58:53;11.50;;;6.50;;
3189;SDS011;1606;51.946;10.558;2022-12-20T02:01:22;12.33;;;6.70;;
3189;SDS011;1606;51.946;10.558;2022-12-20T02:03:51;11.93;;;6.70;;
3189;SDS011;1606;51.946;10.558;2022-12-20T02:06:22;14.60;;;6.33;;
3189;SDS011;1606;51.946;10.558;2022-12-20T02:08:51;13.73;;;5.90;;
3189;SDS011;1606;51.946;10.558;2022-12-20T02:11:33;12.93;;;5.93;;
3189;SDS011;1606;51.946;10.558;2022-12-20T02:14:16;11.17;;;5.83;;
3189;SDS011;1606;51.946;10.558;2022-12-20T02:16:56;14.60;;;5.83;;
3189;SDS011;1606;51.946;10.558;2022-12-20T02:19:41;11.90;;;5.80;;
3189;SDS011;1606;51.946;10.558;2022-12-20T02:22:45;12.77;;;6.13;;
3189;SDS011;1606;51.946;10.558;2022-12-20T02:25:35;13.83;;;5.93;;
3189;SDS011;1606;51.946;10.558;2022-12-20T02:28:14;14.90;;;7.20;;
3189;SDS011;1606;51.946;10.558;2022-12-20T02:30:58;12.80;;;5.60;;
3189;SDS011;1606;51.946;10.558;2022-12-20T02:33:29;14.67;;;6.47;;
3189;SDS011;1606;51.946;10.558;2022-12-20T02:35:57;13.67;;;6.13;;
3189;SDS011;1606;51.946;10.558;2022-12-20T02:38:27;10.90;;;5.87;;
3189;SDS011;1606;51.946;10.558;2022-12-20T02:40:58;11.80;;;5.70;;
3189;SDS011;1606;51.946;10.558;2022-12-20T02:43:30;10.10;;;5.27;;
3189;SDS011;1606;51.946;10.558;2022-12-20T02:46:20;13.00;;;6.40;;
3189;SDS011;1606;51.946;10.558;2022-12-20T02:48:52;16.37;;;7.00;;
3189;SDS011;1606;51.946;10.558;2022-12-20T02:51:22;13.80;;;6.53;;
3189;SDS011;1606;51.946;10.558;2022-12-20T02:53:54;13.90;;;5.60;;
3189;SDS011;1606;51.946;10.558;2022-12-20T02:56:25;12.13;;;5.63;;
3189;SDS011;1606;51.946;10.558;2022-12-20T02:58:57;12.33;;;5.90;;
3189;SDS011;1606;51.946;10.558;2022-12-20T03:01:30;12.20;;;6.20;;
3189;SDS011;1606;51.946;10.558;2022-12-20T03:04:01;12.03;;;6.00;;
3189;SDS011;1606;51.946;10.558;2022-12-20T03:06:30;15.80;;;6.60;;
3189;SDS011;1606;51.946;10.558;2022-12-20T03:08:58;11.57;;;6.00;;
3189;SDS011;1606;51.946;10.558;2022-12-20T03:11:26;10.80;;;5.57;;
3189;SDS011;1606;51.946;10.558;2022-12-20T03:13:54;11.73;;;6.00;;
3189;SDS011;1606;51.946;10.558;2022-12-20T03:16:22;11.97;;;5.97;;
3189;SDS011;1606;51.946;10.558;2022-12-20T03:18:51;13.33;;;6.43;;
3189;SDS011;1606;51.946;10.558;2022-12-20T03:21:19;12.30;;;6.60;;
3189;SDS011;1606;51.946;10.558;2022-12-20T03:23:47;12.13;;;5.77;;
3189;SDS011;1606;51.946;10.558;2022-12-20T03:26:15;10.90;;;5.47;;
3189;SDS011;1606;51.946;10.558;2022-12-20T03:28:43;12.10;;;5.40;;
3189;SDS011;1606;51.946;10.558;2022-12-20T03:31:10;12.97;;;6.23;;
3189;SDS011;1606;51.946;10.558;2022-12-20T03:33:38;11.23;;;5.63;;
3189;SDS011;1606;51.946;10.558;2022-12-20T03:36:08;12.87;;;6.03;;
3189;SDS011;1606;51.946;10.558;2022-12-20T03:38:36;10.47;;;4.90;;
3189;SDS011;1606;51.946;10.558;2022-12-20T03:41:04;9.57;;;4.70;;
3189;SDS011;1606;51.946;10.558;2022-12-20T03:43:32;12.27;;;5.57;;
3189;SDS011;1606;51.946;10.558;2022-12-20T03:46:00;13.57;;;5.17;;
3189;SDS011;1606;51.946;10.558;2022-12-20T03:48:28;12.47;;;5.60;;
3189;SDS011;1606;51.946;10.558;2022-12-20T03:50:56;10.30;;;5.20;;
3189;SDS011;1606;51.946;10.558;2022-12-20T03:53:25;9.73;;;5.10;;
3189;SDS011;1606;51.946;10.558;2022-12-20T03:55:53;13.63;;;4.83;;
3189;SDS011;1606;51.946;10.558;2022-12-20T03:58:20;9.23;;;4.33;;
3189;SDS011;1606;51.946;10.558;2022-12-20T04:00:48;18.43;;;6.50;;
3189;SDS011;1606;51.946;10.558;2022-12-20T04:03:16;10.20;;;4.60;;
3189;SDS011;1606;51.946;10.558;2022-12-20T04:05:45;11.23;;;4.80;;
3189;SDS011;1606;51.946;10.558;2022-12-20T04:08:12;13.10;;;4.50;;
3189;SDS011;1606;51.946;10.558;2022-12-20T04:10:42;9.90;;;4.20;;
3189;SDS011;1606;51.946;10.558;2022-12-20T04:13:23;10.53;;;4.37;;
3189;SDS011;1606;51.946;10.558;2022-12-20T04:15:51;11.17;;;4.50;;
3189;SDS011;1606;51.946;10.558;2022-12-20T04:18:25;10.97;;;4.90;;
3189;SDS011;1606;51.946;10.558;2022-12-20T04:20:53;9.17;;;4.60;;
3189;SDS011;1606;51.946;10.558;2022-12-20T04:23:21;11.17;;;4.53;;
3189;SDS011;1606;51.946;10.558;2022-12-20T04:25:50;10.73;;;4.90;;
3189;SDS011;1606;51.946;10.558;2022-12-20T04:28:18;14.03;;;5.47;;
3189;SDS011;1606;51.946;10.558;2022-12-20T04:30:46;10.20;;;4.90;;
3189;SDS011;1606;51.946;10.558;2022-12-20T04:33:14;11.93;;;4.80;;
3189;SDS011;1606;51.946;10.558;2022-12-20T04:35:42;10.00;;;4.80;;
3189;SDS011;1606;51.946;10.558;2022-12-20T04:38:10;11.80;;;4.97;;
3189;SDS011;1606;51.946;10.558;2022-12-20T04:40:38;11.23;;;4.70;;
3189;SDS011;1606;51.946;10.558;2022-12-20T04:43:07;10.17;;;4.13;;
3189;SDS011;1606;51.946;10.558;2022-12-20T04:45:35;9.90;;;5.17;;
3189;SDS011;1606;51.946;10.558;2022-12-20T04:48:03;10.57;;;4.37;;
3189;SDS011;1606;51.946;10.558;2022-12-20T04:50:51;9.00;;;4.47;;
3189;SDS011;1606;51.946;10.558;2022-12-20T04:53:20;10.10;;;5.20;;
3189;SDS011;1606;51.946;10.558;2022-12-20T04:56:06;12.20;;;4.83;;
3189;SDS011;1606;51.946;10.558;2022-12-20T04:58:35;10.40;;;4.80;;
3189;SDS011;1606;51.946;10.558;2022-12-20T05:01:03;9.43;;;4.33;;
3189;SDS011;1606;51.946;10.558;2022-12-20T05:03:31;10.70;;;5.10;;
3189;SDS011;1606;51.946;10.558;2022-12-20T05:05:59;10.93;;;5.20;;
3189;SDS011;1606;51.946;10.558;2022-12-20T05:08:28;9.60;;;5.20;;
3189;SDS011;1606;51.946;10.558;2022-12-20T05:10:56;11.40;;;5.00;;
3189;SDS011;1606;51.946;10.558;2022-12-20T05:13:24;10.50;;;4.60;;
3189;SDS011;1606;51.946;10.558;2022-12-20T05:15:54;12.23;;;5.20;;
3189;SDS011;1606;51.946;10.558;2022-12-20T05:18:23;11.27;;;5.63;;
3189;SDS011;1606;51.946;10.558;2022-12-20T05:20:53;11.27;;;5.57;;
3189;SDS011;1606;51.946;10.558;2022-12-20T05:23:36;13.87;;;6.03;;
3189;SDS011;1606;51.946;10.558;2022-12-20T05:26:36;12.70;;;5.50;;
3189;SDS011;1606;51.946;10.558;2022-12-20T05:29:05;14.60;;;5.70;;
3189;SDS011;1606;51.946;10.558;2022-12-20T05:31:34;9.30;;;5.50;;
3189;SDS011;1606;51.946;10.558;2022-12-20T05:34:02;11.43;;;6.10;;
3189;SDS011;1606;51.946;10.558;2022-12-20T05:36:30;13.23;;;6.30;;
3189;SDS011;1606;51.946;10.558;2022-12-20T05:38:58;12.03;;;5.23;;
3189;SDS011;1606;51.946;10.558;2022-12-20T05:41:30;10.73;;;5.20;;
3189;SDS011;1606;51.946;10.558;2022-12-20T05:43:57;11.43;;;5.33;;
3189;SDS011;1606;51.946;10.558;2022-12-20T05:46:25;11.67;;;5.43;;
3189;SDS011;1606;51.946;10.558;2022-12-20T05:48:55;11.80;;;6.03;;
3189;SDS011;1606;51.946;10.558;2022-12-20T05:51:22;10.47;;;4.60;;
3189;SDS011;1606;51.946;10.558;2022-12-20T05:53:50;11.60;;;4.90;;
3189;SDS011;1606;51.946;10.558;2022-12-20T05:56:18;9.67;;;4.63;;
3189;SDS011;1606;51.946;10.558;2022-12-20T05:58:46;11.40;;;4.80;;
3189;SDS011;1606;51.946;10.558;2022-12-20T06:01:14;9.60;;;5.00;;
3189;SDS011;1606;51.946;10.558;2022-12-20T06:03:42;8.73;;;4.40;;
3189;SDS011;1606;51.946;10.558;2022-12-20T06:06:12;9.97;;;5.17;;
3189;SDS011;1606;51.946;10.558;2022-12-20T06:08:41;10.53;;;5.03;;
3189;SDS011;1606;51.946;10.558;2022-12-20T06:11:09;14.80;;;5.50;;
3189;SDS011;1606;51.946;10.558;2022-12-20T06:13:37;11.80;;;6.87;;
3189;SDS011;1606;51.946;10.558;2022-12-20T06:16:05;15.37;;;6.70;;
3189;SDS011;1606;51.946;10.558;2022-12-20T06:18:33;10.40;;;5.43;;
3189;SDS011;1606;51.946;10.558;2022-12-20T06:21:01;11.00;;;5.50;;
3189;SDS011;1606;51.946;10.558;2022-12-20T06:23:31;9.80;;;4.90;;
3189;SDS011;1606;51.946;10.558;2022-12-20T06:25:59;12.10;;;5.97;;
3189;SDS011;1606;51.946;10.558;2022-12-20T06:28:27;10.20;;;4.90;;
3189;SDS011;1606;51.946;10.558;2022-12-20T06:30:56;11.70;;;5.10;;
3189;SDS011;1606;51.946;10.558;2022-12-20T06:33:24;9.53;;;4.53;;
3189;SDS011;1606;51.946;10.558;2022-12-20T06:35:52;12.37;;;5.80;;
3189;SDS011;1606;51.946;10.558;2022-12-20T06:38:20;13.00;;;5.57;;
3189;SDS011;1606;51.946;10.558;2022-12-20T06:40:49;12.77;;;5.53;;
3189;SDS011;1606;51.946;10.558;2022-12-20T06:43:17;11.83;;;7.17;;
3189;SDS011;1606;51.946;10.558;2022-12-20T06:45:45;11.47;;;5.23;;
3189;SDS011;1606;51.946;10.558;2022-12-20T06:48:13;9.00;;;4.13;;
3189;SDS011;1606;51.946;10.558;2022-12-20T06:50:41;9.73;;;4.63;;
3189;SDS011;1606;51.946;10.558;2022-12-20T06:53:08;14.90;;;5.17;;
3189;SDS011;1606;51.946;10.558;2022-12-20T06:55:37;10.03;;;4.10;;
3189;SDS011;1606;51.946;10.558;2022-12-20T06:58:07;12.10;;;5.37;;
3189;SDS011;1606;51.946;10.558;2022-12-20T07:00:34;12.00;;;5.17;;
3189;SDS011;1606;51.946;10.558;2022-12-20T07:03:03;9.93;;;4.73;;
3189;SDS011;1606;51.946;10.558;2022-12-20T07:05:31;11.17;;;4.40;;
3189;SDS011;1606;51.946;10.558;2022-12-20T07:07:58;9.90;;;4.77;;
3189;SDS011;1606;51.946;10.558;2022-12-20T07:10:27;11.10;;;4.60;;
3189;SDS011;1606;51.946;10.558;2022-12-20T07:12:55;9.30;;;4.30;;
3189;SDS011;1606;51.946;10.558;2022-12-20T07:15:25;9.17;;;3.70;;
3189;SDS011;1606;51.946;10.558;2022-12-20T07:17:53;10.43;;;4.03;;
3189;SDS011;1606;51.946;10.558;2022-12-20T07:20:21;10.70;;;4.33;;
3189;SDS011;1606;51.946;10.558;2022-12-20T07:22:49;10.57;;;4.40;;
3189;SDS011;1606;51.946;10.558;2022-12-20T07:25:17;8.33;;;3.43;;
3189;SDS011;1606;51.946;10.558;2022-12-20T07:27:45;9.73;;;4.33;;
3189;SDS011;1606;51.946;10.558;2022-12-20T07:30:15;9.10;;;4.00;;
3189;SDS011;1606;51.946;10.558;2022-12-20T07:32:45;9.87;;;3.97;;
3189;SDS011;1606;51.946;10.558;2022-12-20T07:35:13;9.27;;;4.07;;
3189;SDS011;1606;51.946;10.558;2022-12-20T07:37:43;9.20;;;4.30;;
3189;SDS011;1606;51.946;10.558;2022-12-20T07:40:12;9.47;;;4.17;;
3189;SDS011;1606;51.946;10.558;2022-12-20T07:42:41;10.23;;;4.40;;
3189;SDS011;1606;51.946;10.558;2022-12-20T07:45:14;12.00;;;4.50;;
3189;SDS011;1606;51.946;10.558;2022-12-20T07:47:42;9.13;;;4.30;;
3189;SDS011;1606;51.946;10.558;2022-12-20T07:50:11;12.97;;;5.83;;
3189;SDS011;1606;51.946;10.558;2022-12-20T07:52:39;9.53;;;4.00;;
3189;SDS011;1606;51.946;10.558;2022-12-20T07:55:10;8.40;;;3.70;;
3189;SDS011;1606;51.946;10.558;2022-12-20T07:57:41;8.50;;;3.73;;
3189;SDS011;1606;51.946;10.558;2022-12-20T08:00:13;9.27;;;3.77;;
3189;SDS011;1606;51.946;10.558;2022-12-20T08:02:45;10.00;;;4.07;;
3189;SDS011;1606;51.946;10.558;2022-12-20T08:05:18;9.93;;;4.70;;
3189;SDS011;1606;51.946;10.558;2022-12-20T08:07:47;9.00;;;3.57;;
3189;SDS011;1606;51.946;10.558;2022-12-20T08:10:23;10.93;;;3.67;;
3189;SDS011;1606;51.946;10.558;2022-12-20T08:12:52;9.53;;;4.57;;
3189;SDS011;1606;51.946;10.558;2022-12-20T08:15:20;9.50;;;3.53;;
3189;SDS011;1606;51.946;10.558;2022-12-20T08:17:49;9.20;;;4.27;;
3189;SDS011;1606;51.946;10.558;2022-12-20T08:20:18;8.73;;;3.80;;
3189;SDS011;1606;51.946;10.558;2022-12-20T08:22:47;8.57;;;3.80;;
3189;SDS011;1606;51.946;10.558;2022-12-20T08:25:20;11.70;;;4.00;;
3189;SDS011;1606;51.946;10.558;2022-12-20T08:27:48;11.77;;;4.73;;
3189;SDS011;1606;51.946;10.558;2022-12-20T08:30:17;8.93;;;3.33;;
3189;SDS011;1606;51.946;10.558;2022-12-20T08:32:45;8.43;;;3.87;;
3189;SDS011;1606;51.946;10.558;2022-12-20T08:35:13;10.60;;;4.40;;
3189;SDS011;1606;51.946;10.558;2022-12-20T08:37:42;10.90;;;3.63;;
3189;SDS011;1606;51.946;10.558;2022-12-20T08:40:10;8.50;;;4.17;;
3189;SDS011;1606;51.946;10.558;2022-12-20T08:42:38;15.83;;;5.43;;
3189;SDS011;1606;51.946;10.558;2022-12-20T08:45:06;10.90;;;3.73;;
3189;SDS011;1606;51.946;10.558;2022-12-20T08:47:34;8.73;;;3.50;;
3189;SDS011;1606;51.946;10.558;2022-12-20T08:50:03;10.20;;;4.33;;
3189;SDS011;1606;51.946;10.558;2022-12-20T08:52:31;9.57;;;3.80;;
3189;SDS011;1606;51.946;10.558;2022-12-20T08:55:00;9.67;;;3.57;;
3189;SDS011;1606;51.946;10.558;2022-12-20T08:57:30;10.50;;;3.83;;
3189;SDS011;1606;51.946;10.558;2022-12-20T08:59:58;9.33;;;3.77;;
3189;SDS011;1606;51.946;10.558;2022-12-20T09:02:26;10.10;;;3.83;;
3189;SDS011;1606;51.946;10.558;2022-12-20T09:04:54;9.50;;;4.60;;
3189;SDS011;1606;51.946;10.558;2022-12-20T09:07:22;8.87;;;3.50;;
3189;SDS011;1606;51.946;10.558;2022-12-20T09:09:51;10.37;;;3.50;;
3189;SDS011;1606;51.946;10.558;2022-12-20T09:12:20;8.77;;;3.40;;
3189;SDS011;1606;51.946;10.558;2022-12-20T09:14:48;9.40;;;3.57;;
3189;SDS011;1606;51.946;10.558;2022-12-20T09:17:16;13.20;;;3.70;;
3189;SDS011;1606;51.946;10.558;2022-12-20T09:19:44;11.27;;;4.67;;
3189;SDS011;1606;51.946;10.558;2022-12-20T09:22:12;11.00;;;4.60;;
3189;SDS011;1606;51.946;10.558;2022-12-20T09:24:40;9.13;;;3.80;;
3189;SDS011;1606;51.946;10.558;2022-12-20T09:27:07;10.90;;;3.60;;
3189;SDS011;1606;51.946;10.558;2022-12-20T09:29:36;9.10;;;3.47;;
3189;SDS011;1606;51.946;10.558;2022-12-20T09:32:04;7.70;;;3.80;;
3189;SDS011;1606;51.946;10.558;2022-12-20T09:34:32;8.00;;;3.60;;
3189;SDS011;1606;51.946;10.558;2022-12-20T09:37:00;7.77;;;3.47;;
3189;SDS011;1606;51.946;10.558;2022-12-20T09:39:28;10.90;;;2.87;;
3189;SDS011;1606;51.946;10.558;2022-12-20T09:41:56;9.80;;;3.67;;
3189;SDS011;1606;51.946;10.558;2022-12-20T09:44:26;10.43;;;4.70;;
3189;SDS011;1606;51.946;10.558;2022-12-20T09:46:58;9.30;;;3.43;;
3189;SDS011;1606;51.946;10.558;2022-12-20T09:49:36;9.40;;;3.60;;
3189;SDS011;1606;51.946;10.558;2022-12-20T09:55:09;11.67;;;3.77;;
3189;SDS011;1606;51.946;10.558;2022-12-20T09:57:47;7.90;;;3.37;;
3189;SDS011;1606;51.946;10.558;2022-12-20T10:00:24;8.13;;;3.43;;
3189;SDS011;1606;51.946;10.558;2022-12-20T10:02:53;11.80;;;3.73;;
3189;SDS011;1606;51.946;10.558;2022-12-20T10:05:35;8.60;;;4.03;;
3189;SDS011;1606;51.946;10.558;2022-12-20T10:08:14;9.67;;;3.60;;
3189;SDS011;1606;51.946;10.558;2022-12-20T10:10:53;9.00;;;3.50;;
3189;SDS011;1606;51.946;10.558;2022-12-20T10:13:24;9.27;;;3.27;;
3189;SDS011;1606;51.946;10.558;2022-12-20T10:16:04;10.93;;;3.47;;
3189;SDS011;1606;51.946;10.558;2022-12-20T10:18:45;7.40;;;2.93;;
3189;SDS011;1606;51.946;10.558;2022-12-20T10:21:25;6.63;;;2.73;;
3189;SDS011;1606;51.946;10.558;2022-12-20T10:24:01;9.20;;;3.80;;
3189;SDS011;1606;51.946;10.558;2022-12-20T10:26:31;7.93;;;3.10;;
3189;SDS011;1606;51.946;10.558;2022-12-20T10:29:00;8.57;;;3.20;;
3189;SDS011;1606;51.946;10.558;2022-12-20T10:31:28;10.37;;;2.87;;
3189;SDS011;1606;51.946;10.558;2022-12-20T10:33:57;9.63;;;3.30;;
3189;SDS011;1606;51.946;10.558;2022-12-20T10:36:26;7.70;;;2.97;;
3189;SDS011;1606;51.946;10.558;2022-12-20T10:38:55;7.60;;;3.57;;
3189;SDS011;1606;51.946;10.558;2022-12-20T10:41:25;6.50;;;2.27;;
3189;SDS011;1606;51.946;10.558;2022-12-20T10:43:55;8.10;;;2.83;;
3189;SDS011;1606;51.946;10.558;2022-12-20T10:46:33;7.17;;;2.53;;
3189;SDS011;1606;51.946;10.558;2022-12-20T10:51:53;8.75;;;2.65;;
3189;SDS011;1606;51.946;10.558;2022-12-20T10:54:23;7.30;;;2.87;;
3189;SDS011;1606;51.946;10.558;2022-12-20T10:56:55;8.10;;;3.37;;
3189;SDS011;1606;51.946;10.558;2022-12-20T10:59:27;10.27;;;2.50;;
3189;SDS011;1606;51.946;10.558;2022-12-20T11:01:59;8.33;;;2.63;;
3189;SDS011;1606;51.946;10.558;2022-12-20T11:04:31;6.93;;;2.37;;
3189;SDS011;1606;51.946;10.558;2022-12-20T11:07:00;8.40;;;2.97;;
3189;SDS011;1606;51.946;10.558;2022-12-20T11:09:31;7.37;;;2.57;;
3189;SDS011;1606;51.946;10.558;2022-12-20T11:12:01;6.30;;;2.13;;
3189;SDS011;1606;51.946;10.558;2022-12-20T11:14:31;6.83;;;2.20;;
3189;SDS011;1606;51.946;10.558;2022-12-20T11:17:06;6.17;;;2.13;;
3189;SDS011;1606;51.946;10.558;2022-12-20T11:19:53;6.77;;;2.47;;
3189;SDS011;1606;51.946;10.558;2022-12-20T11:22:33;8.80;;;2.53;;
3189;SDS011;1606;51.946;10.558;2022-12-20T11:25:18;6.53;;;2.40;;
3189;SDS011;1606;51.946;10.558;2022-12-20T11:27:54;7.00;;;1.73;;
3189;SDS011;1606;51.946;10.558;2022-12-20T11:30:36;6.47;;;2.10;;
3189;SDS011;1606;51.946;10.558;2022-12-20T11:33:12;13.13;;;3.43;;
3189;SDS011;1606;51.946;10.558;2022-12-20T11:35:51;6.43;;;2.30;;
3189;SDS011;1606;51.946;10.558;2022-12-20T11:38:30;7.77;;;1.90;;
3189;SDS011;1606;51.946;10.558;2022-12-20T11:41:16;6.10;;;1.80;;
3189;SDS011;1606;51.946;10.558;2022-12-20T11:44:00;8.47;;;2.17;;
3189;SDS011;1606;51.946;10.558;2022-12-20T11:46:58;6.13;;;2.03;;
3189;SDS011;1606;51.946;10.558;2022-12-20T11:49:45;7.10;;;2.67;;
3189;SDS011;1606;51.946;10.558;2022-12-20T11:52:26;6.10;;;2.13;;
3189;SDS011;1606;51.946;10.558;2022-12-20T11:55:02;7.50;;;2.40;;
3189;SDS011;1606;51.946;10.558;2022-12-20T11:57:36;6.17;;;1.93;;
3189;SDS011;1606;51.946;10.558;2022-12-20T12:00:31;6.70;;;1.90;;
3189;SDS011;1606;51.946;10.558;2022-12-20T12:03:00;6.57;;;2.30;;
3189;SDS011;1606;51.946;10.558;2022-12-20T12:05:38;6.50;;;2.90;;
3189;SDS011;1606;51.946;10.558;2022-12-20T12:08:11;6.53;;;2.30;;
3189;SDS011;1606;51.946;10.558;2022-12-20T12:10:47;7.57;;;2.10;;
3189;SDS011;1606;51.946;10.558;2022-12-20T12:13:23;6.90;;;2.87;;
3189;SDS011;1606;51.946;10.558;2022-12-20T12:15:56;6.27;;;2.17;;
3189;SDS011;1606;51.946;10.558;2022-12-20T12:18:30;5.63;;;1.93;;
3189;SDS011;1606;51.946;10.558;2022-12-20T12:21:00;6.10;;;2.00;;
3189;SDS011;1606;51.946;10.558;2022-12-20T12:23:38;6.83;;;2.23;;
3189;SDS011;1606;51.946;10.558;2022-12-20T12:26:15;8.47;;;2.40;;
3189;SDS011;1606;51.946;10.558;2022-12-20T12:28:48;6.70;;;2.27;;
3189;SDS011;1606;51.946;10.558;2022-12-20T12:31:21;6.63;;;1.93;;
3189;SDS011;1606;51.946;10.558;2022-12-20T12:33:59;6.47;;;1.80;;
3189;SDS011;1606;51.946;10.558;2022-12-20T12:36:48;5.53;;;2.20;;
3189;SDS011;1606;51.946;10.558;2022-12-20T12:42:50;6.10;;;2.10;;
3189;SDS011;1606;51.946;10.558;2022-12-20T12:45:48;6.17;;;2.23;;
3189;SDS011;1606;51.946;10.558;2022-12-20T12:48:18;11.03;;;2.20;;
3189;SDS011;1606;51.946;10.558;2022-12-20T12:50:52;6.00;;;2.33;;
3189;SDS011;1606;51.946;10.558;2022-12-20T12:53:31;7.00;;;2.50;;
3189;SDS011;1606;51.946;10.558;2022-12-20T13:02:25;7.40;;;2.47;;
3189;SDS011;1606;51.946;10.558;2022-12-20T13:05:29;6.83;;;2.03;;
3189;SDS011;1606;51.946;10.558;2022-12-20T13:08:01;6.27;;;1.93;;
3189;SDS011;1606;51.946;10.558;2022-12-20T13:13:24;6.80;;;2.20;;
3189;SDS011;1606;51.946;10.558;2022-12-20T13:16:12;6.20;;;2.03;;
3189;SDS011;1606;51.946;10.558;2022-12-20T13:19:14;6.70;;;2.20;;
3189;SDS011;1606;51.946;10.558;2022-12-20T13:21:44;6.60;;;2.40;;
3189;SDS011;1606;51.946;10.558;2022-12-20T13:35:54;8.83;;;2.77;;
3189;SDS011;1606;51.946;10.558;2022-12-20T13:38:49;6.00;;;2.30;;
3189;SDS011;1606;51.946;10.558;2022-12-20T13:41:29;8.30;;;3.30;;
3189;SDS011;1606;51.946;10.558;2022-12-20T13:44:08;6.67;;;2.67;;
3189;SDS011;1606;51.946;10.558;2022-12-20T13:46:48;10.50;;;2.50;;
3189;SDS011;1606;51.946;10.558;2022-12-20T13:49:22;9.63;;;3.27;;
3189;SDS011;1606;51.946;10.558;2022-12-20T13:52:06;7.23;;;2.80;;
3189;SDS011;1606;51.946;10.558;2022-12-20T13:54:43;6.50;;;1.97;;
3189;SDS011;1606;51.946;10.558;2022-12-20T13:57:14;6.90;;;2.70;;
3189;SDS011;1606;51.946;10.558;2022-12-20T13:59:44;9.10;;;3.00;;
3189;SDS011;1606;51.946;10.558;2022-12-20T14:02:18;6.77;;;2.37;;
3189;SDS011;1606;51.946;10.558;2022-12-20T14:04:52;8.20;;;3.07;;
3189;SDS011;1606;51.946;10.558;2022-12-20T14:07:24;6.60;;;2.13;;
3189;SDS011;1606;51.946;10.558;2022-12-20T14:09:55;9.30;;;2.90;;
3189;SDS011;1606;51.946;10.558;2022-12-20T14:12:25;9.70;;;2.83;;
3189;SDS011;1606;51.946;10.558;2022-12-20T14:15:02;6.50;;;2.40;;
3189;SDS011;1606;51.946;10.558;2022-12-20T14:17:46;7.43;;;2.77;;
3189;SDS011;1606;51.946;10.558;2022-12-20T14:20:16;6.33;;;2.20;;
3189;SDS011;1606;51.946;10.558;2022-12-20T14:22:48;7.33;;;2.13;;
3189;SDS011;1606;51.946;10.558;2022-12-20T14:25:34;6.90;;;2.23;;
3189;SDS011;1606;51.946;10.558;2022-12-20T14:28:11;7.47;;;2.80;;
3189;SDS011;1606;51.946;10.558;2022-12-20T14:30:53;6.23;;;2.23;;
3189;SDS011;1606;51.946;10.558;2022-12-20T14:33:24;6.60;;;2.27;;
3189;SDS011;1606;51.946;10.558;2022-12-20T14:35:57;6.80;;;2.53;;
3189;SDS011;1606;51.946;10.558;2022-12-20T14:38:34;8.90;;;2.73;;
3189;SDS011;1606;51.946;10.558;2022-12-20T14:41:03;12.20;;;2.90;;
3189;SDS011;1606;51.946;10.558;2022-12-20T14:43:31;6.70;;;2.47;;
3189;SDS011;1606;51.946;10.558;2022-12-20T14:46:17;9.77;;;2.37;;
3189;SDS011;1606;51.946;10.558;2022-12-20T14:48:47;11.10;;;2.73;;
3189;SDS011;1606;51.946;10.558;2022-12-20T14:51:19;8.90;;;2.43;;
3189;SDS011;1606;51.946;10.558;2022-12-20T14:53:48;7.53;;;1.93;;
3189;SDS011;1606;51.946;10.558;2022-12-20T14:56:19;8.53;;;2.57;;
3189;SDS011;1606;51.946;10.558;2022-12-20T14:59:00;8.33;;;2.00;;
3189;SDS011;1606;51.946;10.558;2022-12-20T15:01:31;7.60;;;2.60;;
3189;SDS011;1606;51.946;10.558;2022-12-20T15:04:17;7.93;;;2.20;;
3189;SDS011;1606;51.946;10.558;2022-12-20T15:06:49;8.20;;;2.73;;
3189;SDS011;1606;51.946;10.558;2022-12-20T15:09:19;7.13;;;2.60;;
3189;SDS011;1606;51.946;10.558;2022-12-20T15:11:48;7.50;;;2.43;;
3189;SDS011;1606;51.946;10.558;2022-12-20T15:14:20;8.03;;;2.60;;
3189;SDS011;1606;51.946;10.558;2022-12-20T15:16:54;7.10;;;2.50;;
3189;SDS011;1606;51.946;10.558;2022-12-20T15:19:22;7.40;;;2.90;;
3189;SDS011;1606;51.946;10.558;2022-12-20T15:21:51;7.60;;;2.87;;
3189;SDS011;1606;51.946;10.558;2022-12-20T15:24:20;9.50;;;3.93;;
3189;SDS011;1606;51.946;10.558;2022-12-20T15:26:51;7.53;;;2.83;;
3189;SDS011;1606;51.946;10.558;2022-12-20T15:29:19;7.87;;;2.43;;
3189;SDS011;1606;51.946;10.558;2022-12-20T15:31:48;7.77;;;2.80;;
3189;SDS011;1606;51.946;10.558;2022-12-20T15:34:18;8.50;;;2.93;;
3189;SDS011;1606;51.946;10.558;2022-12-20T15:36:53;9.20;;;3.27;;
3189;SDS011;1606;51.946;10.558;2022-12-20T15:39:22;8.13;;;3.03;;
3189;SDS011;1606;51.946;10.558;2022-12-20T15:41:54;8.87;;;3.23;;
3189;SDS011;1606;51.946;10.558;2022-12-20T15:44:25;7.10;;;3.30;;
3189;SDS011;1606;51.946;10.558;2022-12-20T15:46:55;7.00;;;2.80;;
3189;SDS011;1606;51.946;10.558;2022-12-20T15:49:23;8.80;;;2.90;;
3189;SDS011;1606;51.946;10.558;2022-12-20T15:51:54;7.13;;;2.87;;
3189;SDS011;1606;51.946;10.558;2022-12-20T15:54:23;6.47;;;2.33;;